Time;durP1;ratioP1;P1;durP2;ratioP2;P2;SDS_P1;SDS_P2;PMS_P1;PMS_P2;Temp;Humidity;BMP_temperature;BMP_pressure;BME280_temperature;BME280_humidity;BME280_pressure;Samples;Min_cycle;Max_cycle;Signal;HPM_P1;HPM_P2
2021/03/21 00:01:17;;;;;;;21.25;11.05;;;2.70;73.50;;;;;;1697634;84;21606;-74
2021/03/21 00:03:46;;;;;;;20.72;10.25;;;2.60;74.00;;;;;;1697551;84;21194;-74
2021/03/21 00:06:14;;;;;;;24.02;11.12;;;2.60;74.10;;;;;;1697644;84;21625;-72
2021/03/21 00:08:41;;;;;;;20.57;10.72;;;2.70;72.80;;;;;;1697400;84;21174;-73
2021/03/21 00:11:09;;;;;;;20.85;10.65;;;2.60;71.10;;;;;;1697528;84;21601;-72
2021/03/21 00:13:37;;;;;;;20.52;10.32;;;2.60;70.70;;;;;;1697595;84;21182;-73
2021/03/21 00:16:07;;;;;;;24.18;10.50;;;2.50;70.70;;;;;;1697502;84;21179;-73
2021/03/21 00:18:38;;;;;;;18.90;9.78;;;2.50;72.10;;;;;;1697691;84;21585;-73
2021/03/21 00:21:10;;;;;;;20.52;10.48;;;2.40;74.80;;;;;;1697943;84;21157;-73
2021/03/21 00:23:38;;;;;;;21.05;11.05;;;2.40;74.80;;;;;;1697751;84;21146;-73
2021/03/21 00:26:08;;;;;;;18.95;9.75;;;2.40;73.50;;;;;;1697773;84;21218;-73
2021/03/21 00:28:38;;;;;;;23.40;11.45;;;2.50;72.70;;;;;;1697758;84;21183;-73
2021/03/21 00:31:09;;;;;;;18.62;9.90;;;2.40;71.90;;;;;;1697693;84;21593;-73
2021/03/21 00:33:39;;;;;;;21.42;10.13;;;2.40;72.20;;;;;;1697590;84;21171;-73
2021/03/21 00:36:12;;;;;;;21.33;10.23;;;2.30;74.00;;;;;;1697757;84;21182;-73
2021/03/21 00:38:45;;;;;;;21.93;11.05;;;2.30;73.70;;;;;;1697589;84;21159;-74
2021/03/21 00:41:16;;;;;;;20.68;10.95;;;2.30;72.60;;;;;;1696737;84;21186;-75
2021/03/21 00:43:44;;;;;;;22.55;11.65;;;2.20;72.50;;;;;;1697732;83;21621;-75
2021/03/21 00:46:13;;;;;;;22.98;10.13;;;2.10;72.00;;;;;;1697784;84;21162;-75
2021/03/21 00:48:44;;;;;;;22.65;10.58;;;2.10;73.60;;;;;;1697867;84;21135;-75
2021/03/21 00:51:15;;;;;;;22.45;10.58;;;2.10;74.40;;;;;;1697649;84;21131;-75
2021/03/21 00:53:44;;;;;;;20.20;10.32;;;2.10;73.60;;;;;;1697871;84;21194;-74
2021/03/21 00:56:29;;;;;;;19.85;10.63;;;2.00;72.90;;;;;;1697811;84;21172;-74
2021/03/21 00:58:58;;;;;;;22.37;11.25;;;2.10;72.60;;;;;;1697332;84;21581;-74
2021/03/21 01:01:30;;;;;;;22.45;10.65;;;2.10;72.30;;;;;;1697581;84;21167;-74
2021/03/21 01:03:59;;;;;;;21.15;10.80;;;2.10;73.10;;;;;;1697859;84;21154;-75
2021/03/21 01:06:27;;;;;;;19.50;9.88;;;2.10;71.90;;;;;;1697621;84;21619;-74
2021/03/21 01:08:59;;;;;;;18.50;9.55;;;2.10;73.10;;;;;;1697647;84;21621;-75
2021/03/21 01:11:35;;;;;;;19.67;9.83;;;2.00;72.80;;;;;;1697475;84;21159;-75
2021/03/21 01:14:04;;;;;;;21.75;10.08;;;2.00;73.80;;;;;;1697533;84;21179;-75
2021/03/21 01:16:39;;;;;;;19.92;9.65;;;1.90;74.20;;;;;;1697647;84;21613;-75
2021/03/21 01:19:16;;;;;;;19.35;9.65;;;1.80;73.80;;;;;;1697609;84;21115;-74
2021/03/21 01:21:46;;;;;;;23.07;9.78;;;1.80;74.40;;;;;;1697834;84;21164;-74
2021/03/21 01:24:19;;;;;;;20.02;10.23;;;1.90;74.20;;;;;;1698043;84;21328;-75
2021/03/21 01:26:47;;;;;;;22.62;10.72;;;1.90;74.40;;;;;;1697729;84;21198;-74
2021/03/21 01:29:15;;;;;;;20.40;10.10;;;1.90;72.90;;;;;;1697617;84;21609;-74
2021/03/21 01:31:43;;;;;;;19.90;9.78;;;2.00;72.50;;;;;;1697793;84;21178;-73
2021/03/21 01:34:15;;;;;;;21.33;11.12;;;2.10;71.70;;;;;;1697510;84;21175;-74
2021/03/21 01:36:43;;;;;;;21.40;11.60;;;2.00;70.50;;;;;;1697762;84;21119;-74
2021/03/21 01:39:23;;;;;;;24.02;9.90;;;1.80;70.10;;;;;;1697807;84;21178;-74
2021/03/21 01:41:59;;;;;;;20.95;11.12;;;1.70;71.60;;;;;;1697715;84;21171;-74
2021/03/21 01:44:28;;;;;;;19.27;10.18;;;1.60;70.70;;;;;;1696457;84;21149;-74
2021/03/21 01:47:01;;;;;;;18.90;9.45;;;1.60;71.50;;;;;;1697544;84;21195;-74
2021/03/21 01:49:37;;;;;;;21.77;9.40;;;1.60;72.20;;;;;;1697553;84;21151;-74
2021/03/21 01:52:08;;;;;;;18.87;9.93;;;1.60;72.90;;;;;;1668590;86;21156;-74
2021/03/21 01:54:37;;;;;;;17.57;9.73;;;1.50;73.10;;;;;;1657280;86;21613;-74
2021/03/21 01:57:06;;;;;;;19.02;9.68;;;1.60;73.80;;;;;;1686369;84;21184;-74
2021/03/21 01:59:35;;;;;;;18.65;9.40;;;1.60;72.20;;;;;;1686561;84;21784;-74
2021/03/21 02:02:04;;;;;;;21.20;9.68;;;1.70;71.70;;;;;;1697817;84;21190;-74
2021/03/21 02:04:33;;;;;;;18.15;9.38;;;1.80;72.20;;;;;;1657363;86;21146;-73
2021/03/21 02:07:18;;;;;;;18.37;9.10;;;1.70;71.60;;;;;;1686525;84;21306;-74
2021/03/21 02:10:13;;;;;;;19.67;9.20;;;1.70;72.40;;;;;;1686193;85;21171;-75
2021/03/21 02:12:58;;;;;;;16.77;9.05;;;1.60;72.20;;;;;;1696632;83;21167;-74
2021/03/21 02:15:37;;;;;;;18.67;9.15;;;1.50;71.50;;;;;;1656716;86;21199;-75
2021/03/21 02:18:33;;;;;;;21.30;9.30;;;1.60;72.50;;;;;;1686363;85;21570;-75
2021/03/21 02:21:29;;;;;;;20.57;8.75;;;1.50;71.60;;;;;;1685784;85;21158;-75
2021/03/21 02:24:30;;;;;;;20.52;9.65;;;1.50;71.80;;;;;;1697788;84;21179;-75
2021/03/21 02:27:14;;;;;;;17.00;8.28;;;1.40;72.10;;;;;;1657373;85;21194;-74
2021/03/21 02:30:12;;;;;;;18.60;9.28;;;1.40;71.80;;;;;;1686445;85;21163;-74
2021/03/21 02:32:55;;;;;;;;;;;1.50;71.30;;;;;;1699244;83;21177;-74
2021/03/21 02:35:50;;;;;;;19.15;8.40;;;1.70;71.10;;;;;;1697575;84;20137;-74
2021/03/21 02:38:35;;;;;;;17.65;9.08;;;1.70;72.50;;;;;;1697858;84;21161;-74
2021/03/21 02:41:10;;;;;;;16.95;8.48;;;1.50;71.40;;;;;;1694792;84;21197;-74
2021/03/21 02:43:43;;;;;;;17.17;8.93;;;1.30;72.80;;;;;;1697236;83;21189;-74
2021/03/21 02:46:25;;;;;;;16.93;8.45;;;1.30;73.90;;;;;;1697996;84;21157;-74
2021/03/21 02:49:06;;;;;;;18.30;8.75;;;1.30;71.80;;;;;;1697788;84;21165;-74
2021/03/21 02:51:39;;;;;;;18.57;8.43;;;1.30;70.70;;;;;;1697505;84;21160;-74
2021/03/21 02:54:12;;;;;;;21.62;9.98;;;1.20;70.30;;;;;;1697673;84;21608;-74
2021/03/21 02:56:46;;;;;;;18.57;8.70;;;1.10;69.50;;;;;;1697166;84;21631;-74
2021/03/21 02:59:28;;;;;;;18.87;8.98;;;1.10;70.20;;;;;;1697795;84;21177;-74
2021/03/21 03:02:11;;;;;;;19.55;8.95;;;1.10;71.30;;;;;;1696439;84;21169;-74
2021/03/21 03:04:50;;;;;;;16.85;8.53;;;1.10;70.80;;;;;;1697090;83;21193;-75
2021/03/21 03:07:41;;;;;;;17.00;8.85;;;1.20;71.10;;;;;;1697403;83;21619;-74
2021/03/21 03:10:31;;;;;;;19.73;9.48;;;1.20;70.50;;;;;;1697857;84;21153;-74
2021/03/21 03:13:05;;;;;;;21.00;9.13;;;1.20;70.50;;;;;;1697494;84;21193;-74
2021/03/21 03:15:34;;;;;;;18.15;8.60;;;1.20;70.20;;;;;;1696734;83;21126;-74
2021/03/21 03:18:19;;;;;;;17.00;8.53;;;1.20;71.80;;;;;;1697765;84;21616;-74
2021/03/21 03:20:55;;;;;;;17.67;8.28;;;1.10;72.40;;;;;;1697363;84;21165;-74
2021/03/21 03:23:31;;;;;;;17.17;8.45;;;1.00;72.60;;;;;;1697794;84;21161;-74
2021/03/21 03:26:28;;;;;;;17.57;8.33;;;0.90;72.70;;;;;;1697597;84;21154;-74
2021/03/21 03:29:04;;;;;;;19.37;8.78;;;1.10;72.00;;;;;;1697603;84;21173;-74
2021/03/21 03:31:37;;;;;;;18.27;8.00;;;1.00;72.10;;;;;;1694020;84;21180;-73
2021/03/21 03:34:05;;;;;;;20.65;9.25;;;1.00;70.60;;;;;;1697553;84;21214;-74
2021/03/21 03:36:34;;;;;;;16.10;8.38;;;1.00;71.00;;;;;;1697541;84;21604;-74
2021/03/21 03:39:03;;;;;;;17.05;8.70;;;1.00;70.30;;;;;;1697667;84;21592;-74
2021/03/21 03:41:55;;;;;;;17.05;8.10;;;1.00;70.90;;;;;;1697581;84;21169;-74
2021/03/21 03:44:33;;;;;;;16.35;7.85;;;0.90;72.10;;;;;;1696975;83;21164;-73
2021/03/21 03:47:27;;;;;;;19.32;8.70;;;0.90;72.50;;;;;;1696226;83;21637;-73
2021/03/21 03:50:10;;;;;;;19.75;9.10;;;1.00;71.30;;;;;;1697614;84;21205;-73
2021/03/21 03:52:55;;;;;;;20.52;9.08;;;1.00;69.60;;;;;;1697632;84;21177;-74
2021/03/21 03:55:43;;;;;;;16.70;8.20;;;1.10;69.70;;;;;;1696352;84;21167;-73
2021/03/21 03:58:22;;;;;;;16.20;8.25;;;1.00;70.70;;;;;;1697806;84;21603;-74
2021/03/21 04:01:13;;;;;;;17.52;8.18;;;0.90;70.60;;;;;;1697635;84;21121;-74
2021/03/21 04:03:57;;;;;;;34.08;9.95;;;1.00;70.60;;;;;;1697836;84;21583;-75
2021/03/21 04:06:46;;;;;;;18.10;7.72;;;1.00;71.60;;;;;;1697610;84;21157;-75
2021/03/21 04:09:54;;;;;;;16.67;8.13;;;1.10;69.70;;;;;;1697471;84;21169;-75
2021/03/21 04:12:40;;;;;;;15.70;7.62;;;1.10;68.30;;;;;;1697423;84;21616;-74
2021/03/21 04:15:23;;;;;;;16.82;9.00;;;1.10;68.40;;;;;;1697412;84;21185;-75
2021/03/21 04:17:56;;;;;;;18.37;8.43;;;1.00;67.70;;;;;;1697123;84;21645;-75
2021/03/21 04:20:30;;;;;;;18.80;7.85;;;0.80;67.10;;;;;;1697549;84;21177;-74
2021/03/21 04:23:15;;;;;;;18.20;8.20;;;0.70;67.80;;;;;;1697768;84;21122;-74
2021/03/21 04:25:48;;;;;;;18.12;8.90;;;0.70;69.00;;;;;;1697804;84;21161;-75
2021/03/21 04:28:24;;;;;;;16.25;7.83;;;0.50;68.10;;;;;;1697556;84;21196;-74
2021/03/21 04:31:00;;;;;;;17.13;8.57;;;0.40;69.20;;;;;;1697975;84;21165;-74
2021/03/21 04:33:36;;;;;;;17.77;8.20;;;0.40;69.10;;;;;;1697976;84;21380;-74
2021/03/21 04:36:12;;;;;;;16.25;7.92;;;0.50;69.40;;;;;;1697682;84;21599;-73
2021/03/21 04:38:51;;;;;;;15.98;7.55;;;0.50;68.80;;;;;;1697711;84;21129;-73
2021/03/21 04:41:30;;;;;;;17.50;8.13;;;0.50;69.90;;;;;;1697615;84;21146;-73
2021/03/21 04:44:18;;;;;;;16.02;8.28;;;0.50;68.80;;;;;;1697581;84;21153;-74
2021/03/21 04:46:57;;;;;;;16.57;7.92;;;0.50;68.70;;;;;;1697565;84;21646;-74
2021/03/21 04:49:25;;;;;;;16.25;7.85;;;0.50;69.10;;;;;;1697979;84;21622;-74
2021/03/21 04:51:58;;;;;;;16.87;8.30;;;0.50;68.80;;;;;;1697759;84;21169;-74
2021/03/21 04:54:31;;;;;;;16.90;7.92;;;0.40;69.20;;;;;;1696032;84;21141;-74
2021/03/21 04:57:39;;;;;;;18.25;8.63;;;0.40;68.90;;;;;;1697701;84;21615;-74
2021/03/21 05:00:24;;;;;;;15.88;7.80;;;0.30;69.10;;;;;;1697894;84;21610;-73
2021/03/21 05:02:57;;;;;;;13.85;7.20;;;0.40;69.70;;;;;;1697632;84;21565;-74
2021/03/21 05:05:40;;;;;;;18.40;8.73;;;0.40;69.40;;;;;;1696403;83;21165;-73
2021/03/21 05:08:26;;;;;;;15.93;7.62;;;0.40;68.90;;;;;;1697445;84;21157;-73
2021/03/21 05:10:59;;;;;;;18.00;8.05;;;0.40;67.70;;;;;;1697861;84;21173;-73
2021/03/21 05:13:41;;;;;;;17.95;7.80;;;0.50;68.70;;;;;;1697591;84;21154;-74
2021/03/21 05:16:23;;;;;;;17.92;7.72;;;0.50;69.20;;;;;;1697774;84;21572;-73
2021/03/21 05:19:13;;;;;;;17.17;7.80;;;0.60;68.00;;;;;;1698082;84;21577;-74
2021/03/21 05:21:55;;;;;;;17.15;8.43;;;0.70;68.40;;;;;;1697737;84;21176;-74
2021/03/21 05:24:50;;;;;;;17.35;7.97;;;0.70;69.00;;;;;;1697559;84;21616;-74
2021/03/21 05:27:29;;;;;;;19.55;8.73;;;0.70;68.80;;;;;;1697526;84;21201;-74
2021/03/21 05:30:15;;;;;;;16.60;8.13;;;0.80;69.40;;;;;;1697634;84;21619;-74
2021/03/21 05:32:50;;;;;;;16.65;8.20;;;0.80;69.50;;;;;;1698290;84;21169;-74
2021/03/21 05:35:26;;;;;;;15.23;7.72;;;0.90;69.60;;;;;;1697630;84;21565;-74
2021/03/21 05:38:16;;;;;;;15.35;7.65;;;1.00;68.40;;;;;;1696921;83;21660;-74
2021/03/21 05:41:07;;;;;;;18.62;9.25;;;1.00;66.10;;;;;;1697587;84;21141;-74
2021/03/21 05:43:57;;;;;;;18.02;8.45;;;0.70;66.60;;;;;;1689240;84;21221;-75
2021/03/21 05:47:09;;;;;;;18.25;8.83;;;0.80;66.60;;;;;;1682923;84;21189;-74
2021/03/21 05:50:03;;;;;;;16.17;7.97;;;0.80;67.20;;;;;;1697571;84;21172;-73
2021/03/21 05:52:49;;;;;;;18.98;9.48;;;0.60;66.90;;;;;;1697630;84;21169;-75
2021/03/21 05:55:34;;;;;;;18.07;8.55;;;0.50;67.00;;;;;;1697682;84;21149;-74
2021/03/21 05:58:34;;;;;;;19.87;8.38;;;0.40;67.60;;;;;;1697828;84;21148;-75
2021/03/21 06:01:49;;;;;;;17.75;8.03;;;0.30;67.90;;;;;;1693960;84;21161;-74
2021/03/21 06:04:55;;;;;;;17.32;8.40;;;0.30;68.30;;;;;;1697530;84;21188;-72
2021/03/21 06:07:49;;;;;;;17.23;8.28;;;0.40;69.10;;;;;;1697570;84;21172;-74
2021/03/21 06:11:07;;;;;;;18.37;8.30;;;0.50;68.00;;;;;;1780892;79;22890;-74
2021/03/21 06:14:13;;;;;;;16.05;7.70;;;0.70;68.60;;;;;;1751262;82;21119;-74
2021/03/21 06:17:24;;;;;;;18.00;8.45;;;0.80;67.50;;;;;;1751291;81;21137;-74
2021/03/21 06:20:09;;;;;;;16.60;8.45;;;0.90;67.50;;;;;;1751569;81;21276;-73
2021/03/21 06:23:16;;;;;;;18.27;8.78;;;1.00;67.60;;;;;;1751238;82;21103;-74
2021/03/21 06:26:20;;;;;;;17.03;7.93;;;0.90;66.40;;;;;;1673100;85;21586;-74
2021/03/21 06:29:05;;;;;;;16.77;8.58;;;0.80;66.80;;;;;;1753672;82;21146;-73
2021/03/21 06:31:38;;;;;;;;;;;0.70;67.10;;;;;;1752279;82;21134;-74
2021/03/21 06:34:26;;;;;;;16.95;8.00;;;0.90;67.40;;;;;;1754022;81;20130;-74
2021/03/21 06:37:21;;;;;;;18.80;9.13;;;1.10;67.40;;;;;;1754032;81;21521;-74
2021/03/21 06:40:20;;;;;;;15.83;7.03;;;1.00;66.40;;;;;;1754076;82;21130;-74
2021/03/21 06:43:17;;;;;;;18.23;9.43;;;1.10;66.10;;;;;;1754095;82;21122;-75
2021/03/21 06:46:35;;;;;;;17.70;8.65;;;1.10;67.00;;;;;;1749330;82;21176;-75
2021/03/21 06:49:30;;;;;;;18.00;8.38;;;1.30;66.90;;;;;;1752893;82;21568;-75
2021/03/21 06:52:39;;;;;;;17.37;8.65;;;1.30;67.50;;;;;;1747469;82;21189;-75
2021/03/21 06:55:21;;;;;;;19.90;8.85;;;1.60;67.10;;;;;;1753699;82;21149;-75
2021/03/21 06:57:57;;;;;;;20.77;9.30;;;1.90;67.90;;;;;;1752941;82;21149;-75
2021/03/21 07:00:54;;;;;;;22.32;9.48;;;2.10;64.70;;;;;;1751572;82;21157;-74
2021/03/21 07:04:18;;;;;;;18.65;8.98;;;2.10;65.00;;;;;;1740334;82;21174;-73
2021/03/21 07:07:09;;;;;;;17.65;9.30;;;2.10;63.60;;;;;;1753956;82;21597;-76
2021/03/21 07:10:07;;;;;;;18.17;8.80;;;2.10;64.40;;;;;;1746670;81;21170;-76
2021/03/21 07:13:20;;;;;;;18.98;8.80;;;2.20;65.30;;;;;;1741038;82;21177;-73
2021/03/21 07:16:02;;;;;;;17.50;9.00;;;2.30;64.60;;;;;;1740795;82;21162;-75
2021/03/21 07:19:10;;;;;;;18.90;9.33;;;2.50;64.20;;;;;;1701271;82;21590;-75
2021/03/21 07:21:52;;;;;;;17.65;9.18;;;2.70;63.20;;;;;;1710380;82;21159;-75
2021/03/21 07:25:05;;;;;;;19.17;9.58;;;2.80;63.30;;;;;;1740123;82;21293;-74
2021/03/21 07:28:21;;;;;;;21.42;10.00;;;2.90;63.30;;;;;;1780493;79;23710;-74
2021/03/21 07:31:09;;;;;;;20.00;10.15;;;2.90;62.60;;;;;;1751244;82;21149;-74
2021/03/21 07:34:05;;;;;;;16.85;9.10;;;3.10;64.60;;;;;;1751253;81;21146;-74
2021/03/21 07:36:59;;;;;;;22.87;9.85;;;3.30;61.70;;;;;;1751245;82;21572;-74
2021/03/21 07:39:57;;;;;;;21.05;9.85;;;3.70;60.00;;;;;;1749610;82;21603;-74
2021/03/21 07:42:39;;;;;;;19.02;9.83;;;3.90;59.60;;;;;;1687747;85;21636;-74
2021/03/21 07:45:22;;;;;;;22.10;11.08;;;4.00;59.90;;;;;;1688230;85;21572;-74
2021/03/21 07:48:19;;;;;;;17.65;10.35;;;4.10;58.50;;;;;;1780925;79;23077;-74
2021/03/21 07:51:10;;;;;;;21.82;10.03;;;4.20;59.00;;;;;;1751214;82;21130;-74
2021/03/21 07:54:13;;;;;;;21.55;10.70;;;4.30;58.70;;;;;;1735764;82;21179;-74
2021/03/21 07:56:46;;;;;;;22.07;12.33;;;4.70;57.70;;;;;;1751307;82;21553;-74
2021/03/21 07:59:28;;;;;;;20.30;11.43;;;5.40;56.70;;;;;;1751362;82;21125;-74
2021/03/21 08:01:56;;;;;;;23.02;12.10;;;5.90;55.00;;;;;;1751342;81;21170;-73
2021/03/21 08:04:32;;;;;;;25.02;12.43;;;6.90;52.20;;;;;;1751456;81;21142;-73
2021/03/21 08:07:16;;;;;;;19.87;11.90;;;7.70;49.60;;;;;;1751310;82;21174;-74
2021/03/21 08:09:48;;;;;;;21.17;11.95;;;8.60;48.10;;;;;;1751258;82;21106;-74
2021/03/21 08:12:24;;;;;;;18.62;12.30;;;9.40;46.70;;;;;;1751724;82;21154;-73
2021/03/21 08:14:59;;;;;;;20.45;12.73;;;10.20;45.50;;;;;;1751393;82;21125;-74
2021/03/21 08:17:35;;;;;;;20.48;12.35;;;11.00;42.70;;;;;;1751521;81;21902;-74
2021/03/21 08:20:21;;;;;;;18.92;12.70;;;11.70;41.10;;;;;;1750860;82;21170;-74
2021/03/21 08:22:50;;;;;;;17.60;12.75;;;12.70;39.20;;;;;;1751187;81;21179;-75
2021/03/21 08:25:30;;;;;;;20.35;12.20;;;13.30;36.50;;;;;;1751437;82;21177;-75
2021/03/21 08:27:58;;;;;;;17.92;12.10;;;14.20;36.10;;;;;;1751250;81;21513;-75
2021/03/21 08:30:48;;;;;;;16.85;12.30;;;14.80;34.30;;;;;;1751700;82;21674;-75
2021/03/21 08:33:43;;;;;;;17.85;12.20;;;15.20;33.70;;;;;;1751310;82;21529;-75
2021/03/21 08:36:28;;;;;;;16.23;12.05;;;15.60;32.00;;;;;;1751396;82;21533;-75
2021/03/21 08:39:20;;;;;;;22.13;12.40;;;15.70;30.90;;;;;;1751338;82;21560;-75
2021/03/21 08:41:55;;;;;;;21.60;12.65;;;15.50;31.40;;;;;;1751104;82;21134;-75
2021/03/21 08:44:44;;;;;;;16.60;11.95;;;15.60;31.10;;;;;;1751223;81;21158;-75
2021/03/21 08:47:23;;;;;;;17.37;11.83;;;15.80;32.10;;;;;;1742630;82;21178;-74
2021/03/21 08:49:55;;;;;;;18.77;12.47;;;15.90;31.30;;;;;;1740666;82;21103;-74
2021/03/21 08:52:43;;;;;;;18.42;12.93;;;15.80;31.50;;;;;;1740851;82;21541;-74
2021/03/21 08:55:28;;;;;;;24.55;12.53;;;15.30;31.50;;;;;;1740857;82;21142;-74
2021/03/21 08:57:56;;;;;;;16.85;11.43;;;15.00;33.90;;;;;;1740425;82;21098;-74
2021/03/21 09:00:35;;;;;;;18.12;12.65;;;14.80;33.00;;;;;;1740113;82;21276;-75
2021/03/21 09:03:31;;;;;;;17.23;11.57;;;14.30;34.20;;;;;;1740092;82;21272;-74
2021/03/21 09:06:00;;;;;;;17.92;11.97;;;14.00;34.30;;;;;;1669314;86;21655;-74
2021/03/21 09:08:34;;;;;;;18.27;12.63;;;13.60;35.30;;;;;;1718726;82;21157;-74
2021/03/21 09:11:06;;;;;;;20.37;13.75;;;13.40;36.50;;;;;;1740582;82;21130;-74
2021/03/21 09:13:36;;;;;;;19.95;13.90;;;13.00;36.80;;;;;;1740639;82;21162;-74
2021/03/21 09:16:11;;;;;;;19.23;11.50;;;12.60;38.40;;;;;;1740328;82;21142;-74
2021/03/21 09:18:43;;;;;;;18.98;12.00;;;12.30;38.80;;;;;;1740243;82;21297;-74
2021/03/21 09:21:26;;;;;;;21.97;11.48;;;12.10;39.20;;;;;;1740278;82;21268;-73
2021/03/21 09:24:09;;;;;;;16.45;10.85;;;11.90;39.90;;;;;;1740108;82;21284;-74
2021/03/21 09:26:39;;;;;;;17.60;10.90;;;11.60;41.10;;;;;;1740070;82;21257;-74
2021/03/21 09:29:19;;;;;;;16.75;10.70;;;11.40;40.70;;;;;;1740390;82;21270;-74
2021/03/21 09:31:50;;;;;;;18.50;10.98;;;11.10;40.90;;;;;;1740569;82;21166;-74
2021/03/21 09:34:33;;;;;;;21.62;11.43;;;10.80;43.00;;;;;;1740119;82;21272;-74
2021/03/21 09:37:06;;;;;;;20.40;11.00;;;10.60;42.40;;;;;;1739618;82;21284;-74
2021/03/21 09:39:38;;;;;;;19.57;11.45;;;10.40;44.00;;;;;;1740179;82;21312;-74
2021/03/21 09:42:11;;;;;;;17.98;11.60;;;10.30;44.00;;;;;;1740019;82;21269;-75
2021/03/21 09:44:44;;;;;;;18.70;11.33;;;10.20;44.10;;;;;;1740391;82;21163;-75
2021/03/21 09:47:32;;;;;;;18.37;11.88;;;10.20;44.70;;;;;;1746138;81;21157;-75
2021/03/21 09:50:55;;;;;;;17.30;11.05;;;10.10;44.80;;;;;;1752652;82;21141;-74
2021/03/21 09:54:03;;;;;;;18.20;10.98;;;10.00;44.20;;;;;;1754566;82;21126;-75
2021/03/21 09:57:04;;;;;;;20.37;10.93;;;9.90;44.20;;;;;;1754081;82;21128;-75
2021/03/21 09:59:56;;;;;;;19.40;10.63;;;9.80;45.80;;;;;;1753969;81;21118;-75
2021/03/21 10:02:44;;;;;;;19.50;11.40;;;9.80;45.40;;;;;;1754184;82;21604;-75
2021/03/21 10:05:33;;;;;;;20.37;11.20;;;9.70;47.10;;;;;;1754601;81;21312;-74
2021/03/21 10:08:12;;;;;;;18.05;10.45;;;9.60;44.40;;;;;;1754213;82;21142;-75
2021/03/21 10:10:47;;;;;;;19.50;12.37;;;9.60;45.50;;;;;;1753999;81;21137;-74
2021/03/21 10:13:41;;;;;;;18.27;10.88;;;9.40;44.70;;;;;;1754267;82;21554;-74
2021/03/21 10:16:33;;;;;;;19.32;11.18;;;9.20;46.20;;;;;;1754641;82;21173;-75
2021/03/21 10:19:06;;;;;;;20.50;12.25;;;9.20;46.10;;;;;;1754352;81;21556;-74
2021/03/21 10:21:39;;;;;;;21.02;11.35;;;9.20;46.80;;;;;;1754066;81;21150;-74
2021/03/21 10:24:26;;;;;;;20.55;11.05;;;8.90;47.20;;;;;;1754091;81;21098;-74
2021/03/21 10:27:26;;;;;;;19.25;11.28;;;8.80;47.70;;;;;;1754146;82;21161;-75
2021/03/21 10:30:18;;;;;;;24.27;12.85;;;8.90;48.90;;;;;;1754421;81;21181;-74
2021/03/21 10:32:51;;;;;;;17.35;9.80;;;9.00;47.60;;;;;;1754264;82;21129;-74
2021/03/21 10:35:31;;;;;;;21.07;12.28;;;9.00;47.80;;;;;;1754575;82;21141;-74
2021/03/21 10:38:04;;;;;;;21.95;11.30;;;8.80;47.50;;;;;;1754468;82;21700;-74
2021/03/21 10:40:40;;;;;;;19.70;11.93;;;8.80;49.00;;;;;;1754228;82;21138;-75
2021/03/21 10:43:21;;;;;;;;;;;8.70;48.10;;;;;;1757054;82;21169;-74
2021/03/21 10:45:53;;;;;;;19.45;11.65;;;8.70;48.10;;;;;;1754123;82;20443;-74
2021/03/21 10:48:33;;;;;;;18.82;11.08;;;8.70;49.00;;;;;;1754007;81;21169;-74
2021/03/21 10:51:09;;;;;;;20.65;11.65;;;8.70;47.90;;;;;;1754325;81;21134;-75
2021/03/21 10:53:55;;;;;;;21.15;12.33;;;8.80;49.30;;;;;;1754225;81;21168;-73
2021/03/21 10:56:26;;;;;;;19.73;10.48;;;8.60;48.60;;;;;;1754454;82;21164;-74
2021/03/21 10:59:11;;;;;;;20.15;11.45;;;8.40;47.90;;;;;;1754156;81;21592;-75
2021/03/21 11:01:43;;;;;;;16.97;9.93;;;8.40;49.00;;;;;;1754245;82;21533;-74
2021/03/21 11:04:23;;;;;;;20.35;11.40;;;8.30;51.20;;;;;;1754200;81;21144;-75
2021/03/21 11:07:02;;;;;;;19.87;11.33;;;8.40;50.50;;;;;;1754535;82;21118;-76
2021/03/21 11:09:35;;;;;;;18.15;10.10;;;8.50;49.90;;;;;;1753286;82;21643;-75
2021/03/21 11:12:08;;;;;;;23.15;11.30;;;8.60;49.90;;;;;;1754119;82;21577;-76
2021/03/21 11:14:37;;;;;;;19.55;11.22;;;8.60;48.80;;;;;;1753262;82;21572;-75
2021/03/21 11:17:30;;;;;;;18.98;10.48;;;8.60;49.10;;;;;;1754283;82;21130;-74
2021/03/21 11:19:58;;;;;;;19.15;10.85;;;8.70;48.70;;;;;;1754144;81;21548;-75
2021/03/21 11:22:31;;;;;;;17.17;9.88;;;8.70;49.40;;;;;;1754008;81;21145;-75
2021/03/21 11:25:03;;;;;;;19.37;11.20;;;8.80;49.10;;;;;;1754205;82;21142;-76
2021/03/21 11:27:36;;;;;;;20.90;11.28;;;8.80;49.50;;;;;;1754235;82;21157;-76
2021/03/21 11:30:20;;;;;;;16.65;10.32;;;8.80;49.50;;;;;;1753952;81;21604;-76
2021/03/21 11:32:47;;;;;;;19.42;10.85;;;8.90;49.80;;;;;;1754236;82;21130;-76
2021/03/21 11:35:29;;;;;;;23.22;15.08;;;8.90;49.10;;;;;;1754029;82;21138;-75
2021/03/21 11:37:59;;;;;;;19.27;11.55;;;8.80;49.40;;;;;;1754123;81;21140;-75
2021/03/21 11:40:35;;;;;;;20.23;11.12;;;8.70;49.40;;;;;;1754390;82;21184;-75
2021/03/21 11:43:27;;;;;;;19.48;11.08;;;8.70;50.10;;;;;;1754343;82;21568;-75
2021/03/21 11:46:15;;;;;;;17.80;11.53;;;8.80;48.90;;;;;;1753073;82;21146;-75
2021/03/21 11:48:44;;;;;;;21.12;11.80;;;8.70;48.60;;;;;;1752437;82;21206;-74
2021/03/21 11:51:13;;;;;;;20.97;11.53;;;8.70;49.90;;;;;;1754297;82;21158;-74
2021/03/21 11:53:41;;;;;;;18.30;11.53;;;8.80;49.10;;;;;;1754694;82;21165;-73
2021/03/21 11:56:29;;;;;;;17.70;10.45;;;8.80;49.80;;;;;;1754192;82;21564;-73
2021/03/21 11:59:14;;;;;;;18.65;11.10;;;8.80;49.20;;;;;;1752640;82;21607;-74
2021/03/21 12:01:48;;;;;;;19.42;11.95;;;8.80;48.20;;;;;;1753997;82;21166;-73
2021/03/21 12:04:30;;;;;;;21.42;13.25;;;8.80;50.00;;;;;;1754577;82;21631;-73
2021/03/21 12:07:00;;;;;;;21.68;12.33;;;8.70;49.80;;;;;;1754024;82;21150;-72
2021/03/21 12:09:40;;;;;;;20.75;13.28;;;8.50;50.50;;;;;;1754218;81;21114;-72
2021/03/21 12:12:38;;;;;;;20.30;11.90;;;8.20;50.00;;;;;;1752797;82;21141;-73
2021/03/21 12:15:24;;;;;;;22.10;12.28;;;8.10;51.10;;;;;;1754262;81;21157;-73
2021/03/21 12:18:09;;;;;;;22.45;12.65;;;8.00;51.70;;;;;;1754082;81;21599;-73
2021/03/21 12:20:51;;;;;;;20.88;12.28;;;8.00;52.30;;;;;;1752974;82;21146;-73
2021/03/21 12:23:41;;;;;;;20.17;11.65;;;7.90;51.80;;;;;;1749871;82;21122;-73
2021/03/21 12:26:45;;;;;;;20.08;11.73;;;7.90;52.00;;;;;;1752008;82;21589;-73
2021/03/21 12:29:27;;;;;;;19.70;11.78;;;8.00;52.60;;;;;;1753767;82;21166;-72
2021/03/21 12:32:15;;;;;;;25.15;11.50;;;7.90;51.40;;;;;;1754358;82;21133;-73
2021/03/21 12:34:47;;;;;;;19.52;10.72;;;7.90;51.60;;;;;;1752867;82;21584;-73
2021/03/21 12:37:25;;;;;;;22.30;12.35;;;8.10;52.40;;;;;;1754114;82;21130;-74
2021/03/21 12:40:17;;;;;;;19.45;10.98;;;8.20;52.70;;;;;;1754773;81;21303;-74
2021/03/21 12:42:48;;;;;;;21.95;11.30;;;8.40;52.70;;;;;;1754254;82;21142;-73
2021/03/21 12:45:32;;;;;;;20.70;11.70;;;8.50;52.00;;;;;;1754247;82;21159;-76
2021/03/21 12:48:04;;;;;;;18.45;10.20;;;8.60;51.40;;;;;;1754505;81;21552;-73
2021/03/21 12:50:37;;;;;;;17.57;10.40;;;8.70;50.30;;;;;;1754169;81;21126;-73
2021/03/21 12:53:14;;;;;;;20.02;11.35;;;8.80;50.10;;;;;;1754165;81;21142;-73
2021/03/21 12:55:43;;;;;;;16.93;10.10;;;8.70;50.20;;;;;;1753523;82;21184;-73
2021/03/21 12:58:11;;;;;;;17.75;9.83;;;8.80;50.30;;;;;;1754140;81;21581;-74
2021/03/21 13:00:39;;;;;;;15.13;9.05;;;8.70;50.10;;;;;;1754235;82;21149;-73
2021/03/21 13:03:09;;;;;;;15.68;9.23;;;8.80;50.40;;;;;;1754240;81;21158;-73
2021/03/21 13:05:41;;;;;;;16.75;9.73;;;8.80;49.80;;;;;;1754408;82;21165;-73
2021/03/21 13:08:10;;;;;;;16.32;9.58;;;8.70;49.00;;;;;;1754123;82;21157;-74
2021/03/21 13:10:39;;;;;;;15.60;9.00;;;8.60;49.50;;;;;;1754273;82;21118;-73
2021/03/21 13:13:09;;;;;;;14.05;8.88;;;8.70;49.70;;;;;;1754606;82;21299;-73
2021/03/21 13:15:37;;;;;;;16.90;9.25;;;8.80;49.80;;;;;;1754204;81;21145;-75
2021/03/21 13:18:05;;;;;;;16.07;9.18;;;8.70;49.00;;;;;;1754507;81;21145;-74
2021/03/21 13:20:34;;;;;;;14.07;8.68;;;8.80;48.80;;;;;;1754090;82;21172;-75
2021/03/21 13:23:02;;;;;;;14.05;7.97;;;8.90;49.50;;;;;;1754350;82;21162;-74
2021/03/21 13:25:34;;;;;;;14.18;8.00;;;9.00;48.70;;;;;;1754303;81;21157;-73
2021/03/21 13:28:06;;;;;;;14.65;8.28;;;9.10;49.10;;;;;;1754301;81;21145;-73
2021/03/21 13:30:38;;;;;;;14.47;8.93;;;9.00;47.20;;;;;;1754186;82;21612;-74
2021/03/21 13:33:09;;;;;;;14.60;8.45;;;9.00;48.50;;;;;;1754126;81;21141;-74
2021/03/21 13:35:37;;;;;;;13.78;8.13;;;9.00;48.70;;;;;;1754310;82;21552;-74
2021/03/21 13:38:06;;;;;;;13.08;8.45;;;8.90;48.70;;;;;;1754233;82;21571;-73
2021/03/21 13:40:40;;;;;;;14.45;8.43;;;8.80;49.30;;;;;;1754110;81;21173;-74
2021/03/21 13:43:12;;;;;;;16.82;8.68;;;8.90;48.30;;;;;;1754372;81;21133;-73
2021/03/21 13:45:43;;;;;;;15.10;8.05;;;8.90;48.70;;;;;;1754105;81;21154;-73
2021/03/21 13:48:13;;;;;;;16.97;8.70;;;8.80;48.80;;;;;;1748781;81;21607;-74
2021/03/21 13:50:43;;;;;;;13.10;8.23;;;8.80;47.70;;;;;;1740099;82;21332;-73